Terminal Aerodrome Forecast
Issued by NWS

Home | Current Version | Previous Version | Text Only | Print | Product List | Glossary On
Versions: 1 2 3 4 5 6 7 8 9 10 11 12 13 14 15 16 17
000
FTUS43 KGRR 012300 RRA
TAFBTL
TAF
KBTL 012342Z 0200/0224 24003KT P6SM SKC
     FM020900 00000KT 2SM BR SKC
     FM021400 32003KT P6SM SKC
     FM021800 32006KT P6SM VCTS BKN040CB=

USA.gov is the U.S. government's official web portal to all federal, state and local government web resources and services.